createdAt,value
2018-09-12T00:00:18.689Z,82.80
2018-09-12T00:02:46.228Z,83.20
2018-09-12T00:05:13.804Z,83.40
2018-09-12T00:07:41.346Z,83.40
2018-09-12T00:10:08.924Z,83.60
2018-09-12T00:12:36.483Z,83.80
2018-09-12T00:15:04.117Z,84.00
2018-09-12T00:17:31.673Z,84.00
2018-09-12T00:19:59.250Z,84.10
2018-09-12T00:22:26.773Z,84.30
2018-09-12T00:24:54.424Z,84.10
2018-09-12T00:27:21.980Z,84.00
2018-09-12T00:29:49.528Z,84.10
2018-09-12T00:32:17.122Z,84.30
2018-09-12T00:34:44.685Z,84.30
2018-09-12T00:37:12.254Z,84.30
2018-09-12T00:39:39.844Z,84.70
2018-09-12T00:42:07.370Z,84.50
2018-09-12T00:44:34.923Z,84.70
2018-09-12T00:47:02.470Z,84.90
2018-09-12T00:49:30.037Z,85.10
2018-09-12T00:51:57.605Z,85.10
2018-09-12T00:54:25.163Z,85.10
2018-09-12T00:56:52.693Z,85.10
2018-09-12T00:59:20.240Z,85.30
2018-09-12T01:01:48.573Z,85.50
2018-09-12T01:04:16.158Z,85.50
2018-09-12T01:06:43.723Z,85.50
2018-09-12T01:09:11.273Z,85.50
2018-09-12T01:11:38.802Z,85.60
2018-09-12T01:14:06.399Z,85.60
2018-09-12T01:16:34.544Z,85.50
2018-09-12T01:19:02.463Z,85.60
2018-09-12T01:21:30.054Z,85.50
2018-09-12T01:23:57.808Z,85.50
2018-09-12T01:26:25.400Z,85.60
2018-09-12T01:28:52.947Z,85.80
2018-09-12T01:31:20.479Z,86.20
2018-09-12T01:33:48.008Z,86.40
2018-09-12T01:36:15.569Z,86.80
2018-09-12T01:38:43.204Z,86.90
2018-09-12T01:41:10.780Z,87.30
2018-09-12T01:43:38.352Z,87.50
2018-09-12T01:46:06.180Z,87.90
2018-09-12T01:48:34.958Z,87.90
2018-09-12T01:51:02.724Z,88.20
2018-09-12T01:53:30.349Z,88.40
2018-09-12T01:55:57.878Z,88.60
2018-09-12T01:58:25.428Z,88.80
2018-09-12T02:00:52.972Z,88.80
2018-09-12T02:03:20.514Z,89.20
2018-09-12T02:05:48.081Z,89.00
2018-09-12T02:08:15.608Z,89.20
2018-09-12T02:10:43.156Z,89.00
2018-09-12T02:13:10.676Z,88.80
2018-09-12T02:15:38.215Z,88.80
2018-09-12T02:18:05.592Z,89.00
2018-09-12T02:20:33.148Z,88.80
2018-09-12T02:23:00.672Z,89.00
2018-09-12T02:25:28.236Z,88.80
2018-09-12T02:27:55.760Z,88.60
2018-09-12T02:30:23.360Z,88.60
2018-09-12T02:32:50.931Z,88.60
2018-09-12T02:35:18.484Z,88.60
2018-09-12T02:37:46.071Z,89.00
2018-09-12T02:40:13.616Z,89.40
2018-09-12T02:42:41.142Z,89.40
2018-09-12T02:45:08.821Z,89.60
2018-09-12T02:47:37.449Z,89.60
2018-09-12T02:50:08.140Z,89.70
2018-09-12T02:52:35.958Z,89.70
2018-09-12T02:55:03.580Z,89.70
2018-09-12T02:57:31.153Z,89.60
2018-09-12T02:59:58.863Z,89.60
2018-09-12T03:02:26.479Z,89.70
2018-09-12T03:04:54.158Z,90.10
2018-09-12T03:07:21.766Z,90.10
2018-09-12T03:09:49.353Z,90.10
2018-09-12T03:12:16.924Z,89.90
2018-09-12T03:14:44.578Z,89.90
2018-09-12T03:17:13.000Z,89.70
2018-09-12T03:19:40.590Z,89.60
2018-09-12T03:22:08.162Z,89.40
2018-09-12T03:24:35.941Z,89.20
2018-09-12T03:27:03.834Z,89.20
2018-09-12T03:29:31.437Z,89.20
2018-09-12T03:31:59.269Z,89.20
2018-09-12T03:34:26.834Z,89.60
2018-09-12T03:36:54.460Z,89.20
2018-09-12T03:39:21.993Z,89.40
2018-09-12T03:41:49.553Z,89.20
2018-09-12T03:44:17.089Z,89.20
2018-09-12T03:46:44.632Z,89.60
2018-09-12T03:49:13.030Z,89.60
2018-09-12T03:51:41.068Z,89.60
2018-09-12T03:54:08.673Z,90.10
2018-09-12T03:56:36.278Z,90.30
2018-09-12T03:59:04.216Z,90.40
2018-09-12T04:01:31.725Z,90.20
2018-09-12T04:03:59.263Z,90.10
2018-09-12T04:06:26.784Z,90.10
2018-09-12T04:08:54.365Z,89.90
2018-09-12T04:11:21.904Z,89.60
2018-09-12T04:13:49.452Z,89.40
2018-09-12T04:16:17.030Z,89.20
2018-09-12T04:18:44.582Z,89.20
2018-09-12T04:21:12.192Z,89.40
2018-09-12T04:23:39.706Z,89.70
2018-09-12T04:26:07.277Z,89.90
2018-09-12T04:28:34.844Z,90.10
2018-09-12T04:31:02.369Z,90.10
2018-09-12T04:33:29.901Z,90.10
2018-09-12T04:35:57.452Z,90.10
2018-09-12T04:38:24.975Z,90.10
2018-09-12T04:40:52.513Z,90.10
2018-09-12T04:43:20.177Z,89.70
2018-09-12T04:45:47.980Z,89.90
2018-09-12T04:48:15.543Z,90.10
2018-09-12T04:50:43.112Z,90.10
2018-09-12T04:53:10.726Z,90.10
2018-09-12T04:55:38.290Z,90.10
2018-09-12T04:58:05.829Z,90.10
2018-09-12T05:00:33.403Z,90.20
2018-09-12T05:03:00.911Z,90.40
2018-09-12T05:05:28.560Z,90.40
2018-09-12T05:07:56.112Z,90.40
2018-09-12T05:10:23.631Z,90.40
2018-09-12T05:12:51.193Z,90.60
2018-09-12T05:15:18.746Z,90.60
2018-09-12T05:17:46.260Z,90.70
2018-09-12T05:20:13.767Z,90.50
2018-09-12T05:22:41.354Z,90.60
2018-09-12T05:25:08.872Z,90.80
2018-09-12T05:27:36.475Z,90.80
2018-09-12T05:30:04.340Z,90.90
2018-09-12T05:32:31.873Z,90.90
2018-09-12T05:34:59.417Z,90.80
2018-09-12T05:37:26.925Z,90.60
2018-09-12T05:39:54.427Z,90.40
2018-09-12T05:42:21.989Z,90.30
2018-09-12T05:44:49.479Z,89.70
2018-09-12T05:47:16.984Z,89.20
2018-09-12T05:49:44.516Z,88.20
2018-09-12T05:52:12.073Z,88.20
2018-09-12T05:54:39.623Z,88.10
2018-09-12T05:57:07.154Z,88.10
2018-09-12T05:59:34.700Z,88.20
2018-09-12T06:02:02.284Z,88.20
2018-09-12T06:04:29.817Z,86.40
2018-09-12T06:06:57.433Z,82.10
2018-09-12T06:09:24.896Z,77.80
2018-09-12T06:11:52.453Z,74.30
2018-09-12T06:14:19.991Z,69.40
2018-09-12T06:16:47.544Z,65.00
2018-09-12T06:19:15.055Z,59.50
2018-09-12T06:21:42.595Z,56.30
2018-09-12T06:24:10.149Z,52.80
2018-09-12T06:26:37.698Z,48.80
2018-09-12T06:29:05.333Z,45.80
2018-09-12T06:31:33.117Z,43.80
2018-09-12T06:34:00.695Z,41.10
2018-09-12T06:36:28.238Z,38.50
2018-09-12T06:38:55.768Z,35.70
2018-09-12T06:41:23.426Z,33.30
2018-09-12T06:43:50.981Z,30.90
2018-09-12T06:46:18.561Z,29.10
2018-09-12T06:48:46.144Z,27.50
2018-09-12T06:51:13.706Z,26.90
2018-09-12T06:53:41.315Z,26.10
2018-09-12T06:56:08.908Z,25.60
2018-09-12T06:58:36.465Z,24.20
2018-09-12T07:01:04.080Z,23.40
2018-09-12T07:03:31.574Z,22.70
2018-09-12T07:05:59.145Z,21.90
2018-09-12T07:08:26.703Z,20.40
2018-09-12T07:10:55.221Z,19.70
2018-09-12T07:13:22.797Z,19.10
2018-09-12T07:15:50.338Z,18.40
2018-09-12T07:18:17.879Z,17.60
2018-09-12T07:20:45.435Z,17.10
2018-09-12T07:23:13.750Z,16.20
2018-09-12T07:25:41.283Z,15.50
2018-09-12T07:28:08.794Z,15.20
2018-09-12T07:30:36.369Z,14.60
2018-09-12T07:33:03.952Z,14.00
2018-09-12T07:35:31.518Z,13.40
2018-09-12T07:37:59.093Z,12.90
2018-09-12T07:40:26.621Z,12.50
2018-09-12T07:42:54.201Z,12.40
2018-09-12T07:45:22.345Z,12.10
2018-09-12T07:47:49.945Z,11.50
2018-09-12T07:50:18.169Z,10.90
2018-09-12T07:52:45.735Z,11.00
2018-09-12T07:55:13.321Z,10.70
2018-09-12T07:57:40.849Z,10.10
2018-09-12T08:00:09.264Z,10.00
2018-09-12T08:02:36.726Z,9.40
2018-09-12T08:05:05.110Z,9.40
2018-09-12T08:07:32.748Z,9.40
2018-09-12T08:10:00.391Z,8.90
2018-09-12T08:12:27.942Z,8.70
2018-09-12T08:14:55.528Z,8.30
2018-09-12T08:17:23.114Z,7.80
2018-09-12T08:19:50.639Z,7.70
2018-09-12T08:22:18.205Z,7.80
2018-09-12T08:24:45.778Z,7.60
2018-09-12T08:27:13.365Z,7.40
2018-09-12T08:29:40.899Z,7.20
2018-09-12T08:32:08.435Z,6.70
2018-09-12T08:34:35.995Z,6.50
2018-09-12T08:37:03.607Z,6.30
2018-09-12T08:39:31.194Z,6.00
2018-09-12T08:41:58.842Z,5.90
2018-09-12T08:44:26.397Z,5.80
2018-09-12T08:46:53.949Z,6.10
2018-09-12T08:49:21.509Z,5.80
2018-09-12T08:51:49.043Z,5.50
2018-09-12T08:54:16.608Z,5.70
2018-09-12T08:56:44.254Z,5.60
2018-09-12T08:59:11.785Z,5.50
2018-09-12T09:01:39.357Z,5.20
2018-09-12T09:04:08.697Z,5.00
2018-09-12T09:06:36.287Z,4.60
2018-09-12T09:09:07.319Z,4.70
2018-09-12T09:11:34.868Z,4.80
2018-09-12T09:14:02.720Z,4.50
2018-09-12T09:16:30.336Z,4.20
2018-09-12T09:18:57.935Z,4.60
2018-09-12T09:21:25.479Z,5.10
2018-09-12T09:23:53.139Z,5.20
2018-09-12T09:26:20.679Z,5.60
2018-09-12T09:28:48.234Z,4.90
2018-09-12T09:31:15.779Z,4.80
2018-09-12T09:33:43.369Z,5.40
2018-09-12T09:36:10.915Z,5.20
2018-09-12T09:38:38.435Z,5.20
2018-09-12T09:41:06.040Z,4.60
2018-09-12T09:43:33.552Z,4.50
2018-09-12T09:46:01.128Z,3.70
2018-09-12T09:48:28.744Z,3.70
2018-09-12T09:50:56.253Z,4.20
2018-09-12T09:53:23.789Z,4.10
2018-09-12T09:55:51.359Z,4.20
2018-09-12T09:58:18.961Z,3.80
2018-09-12T10:00:52.120Z,4.00
2018-09-12T10:03:25.335Z,3.90
2018-09-12T10:06:58.244Z,3.90
2018-09-12T10:09:32.903Z,3.70
2018-09-12T10:12:01.605Z,3.60
2018-09-12T10:14:29.107Z,3.60
2018-09-12T10:16:56.656Z,3.70
2018-09-12T10:19:24.276Z,3.30
2018-09-12T10:21:51.809Z,3.50
2018-09-12T10:24:19.348Z,3.50
2018-09-12T10:26:46.945Z,3.60
2018-09-12T10:29:15.153Z,3.20
2018-09-12T10:31:42.868Z,3.00
2018-09-12T10:34:10.406Z,3.10
2018-09-12T10:36:38.084Z,3.00
2018-09-12T10:39:08.880Z,3.20
2018-09-12T10:41:36.505Z,3.10
2018-09-12T10:44:04.116Z,3.30
2018-09-12T10:46:31.687Z,3.10
2018-09-12T10:48:59.276Z,3.00
2018-09-12T10:51:26.853Z,3.30
2018-09-12T10:53:54.412Z,3.70
2018-09-12T10:56:21.982Z,3.50
2018-09-12T10:58:49.572Z,3.60
2018-09-12T11:01:17.124Z,3.60
2018-09-12T11:03:44.711Z,3.20
2018-09-12T11:06:12.290Z,3.70
2018-09-12T11:08:39.965Z,3.40
2018-09-12T11:11:07.549Z,4.00
2018-09-12T11:13:35.105Z,3.70
2018-09-12T11:16:02.706Z,3.40
2018-09-12T11:18:30.268Z,3.70
2018-09-12T11:20:58.005Z,3.80
2018-09-12T11:23:25.577Z,3.80
2018-09-12T11:25:53.112Z,4.00
2018-09-12T11:28:20.647Z,3.80
2018-09-12T11:30:48.188Z,3.60
2018-09-12T11:33:15.739Z,3.40
2018-09-12T11:35:43.316Z,4.10
2018-09-12T11:38:10.841Z,3.80
2018-09-12T11:40:38.396Z,3.90
2018-09-12T11:43:06.904Z,3.70
2018-09-12T11:45:34.440Z,4.00
2018-09-12T11:48:01.988Z,4.20
2018-09-12T11:50:29.616Z,4.20
2018-09-12T11:52:57.208Z,4.50
2018-09-12T11:55:25.471Z,4.80
2018-09-12T11:57:53.054Z,4.80
2018-09-12T12:00:20.646Z,4.90
2018-09-12T12:02:48.202Z,5.30
2018-09-12T12:05:15.828Z,5.50
2018-09-12T12:07:43.345Z,5.50
2018-09-12T12:10:10.969Z,6.30
2018-09-12T12:12:38.574Z,6.30
2018-09-12T12:15:06.215Z,6.20
2018-09-12T12:17:34.003Z,7.00
2018-09-12T12:20:01.517Z,6.90
2018-09-12T12:22:29.084Z,6.60
2018-09-12T12:24:56.620Z,6.30
2018-09-12T12:27:24.506Z,5.80
2018-09-12T12:29:52.099Z,6.20
2018-09-12T12:32:19.708Z,5.60
2018-09-12T12:34:47.276Z,6.10
2018-09-12T12:37:14.840Z,5.40
2018-09-12T12:39:42.427Z,5.90
2018-09-12T12:42:09.955Z,6.00
2018-09-12T12:44:37.512Z,6.10
2018-09-12T12:47:05.158Z,6.20
2018-09-12T12:49:32.744Z,5.90
2018-09-12T12:52:00.735Z,5.60
2018-09-12T12:54:28.330Z,5.80
2018-09-12T12:56:55.897Z,5.90
2018-09-12T12:59:23.474Z,5.80
2018-09-12T13:01:51.005Z,6.40
2018-09-12T13:04:18.592Z,6.70
2018-09-12T13:06:46.113Z,6.30
2018-09-12T13:09:13.648Z,6.00
2018-09-12T13:11:41.208Z,6.60
2018-09-12T13:14:08.748Z,7.20
2018-09-12T13:16:36.292Z,8.00
2018-09-12T13:19:03.897Z,9.80
2018-09-12T13:21:31.427Z,10.30
2018-09-12T13:23:58.979Z,10.60
2018-09-12T13:26:26.609Z,10.80
2018-09-12T13:28:54.229Z,10.10
2018-09-12T13:31:21.730Z,9.60
2018-09-12T13:33:49.294Z,9.80
2018-09-12T13:36:16.868Z,9.80
2018-09-12T13:38:44.453Z,9.70
2018-09-12T13:41:12.026Z,9.30
2018-09-12T13:43:39.634Z,8.20
2018-09-12T13:46:07.202Z,7.60
2018-09-12T13:48:34.797Z,7.50
2018-09-12T13:51:02.392Z,7.10
2018-09-12T13:53:29.922Z,7.30
2018-09-12T13:55:57.463Z,7.60
2018-09-12T13:58:25.077Z,7.30
2018-09-12T14:00:52.619Z,7.50
2018-09-12T14:03:20.301Z,7.40
2018-09-12T14:05:47.816Z,7.30
2018-09-12T14:08:15.372Z,8.10
2018-09-12T14:10:42.966Z,7.40
2018-09-12T14:13:10.529Z,8.10
2018-09-12T14:15:38.117Z,8.40
2018-09-12T14:18:05.738Z,8.40
2018-09-12T14:20:33.301Z,8.20
2018-09-12T14:23:00.853Z,9.40
2018-09-12T14:25:29.240Z,9.50
2018-09-12T14:27:56.775Z,9.10
2018-09-12T14:30:24.434Z,8.70
2018-09-12T14:32:51.949Z,9.10
2018-09-12T14:35:19.624Z,9.40
2018-09-12T14:37:47.166Z,9.20
2018-09-12T14:40:14.763Z,9.20
2018-09-12T14:42:42.355Z,9.50
2018-09-12T14:45:10.018Z,9.90
2018-09-12T14:47:37.544Z,10.00
2018-09-12T14:50:05.144Z,10.30
2018-09-12T14:52:32.732Z,10.50
2018-09-12T14:55:00.278Z,10.70
2018-09-12T14:57:27.804Z,10.40
2018-09-12T14:59:55.363Z,11.10
2018-09-12T15:02:23.035Z,11.00
2018-09-12T15:04:50.678Z,11.00
2018-09-12T15:07:18.211Z,11.60
2018-09-12T15:09:45.724Z,11.70
2018-09-12T15:12:13.380Z,12.60
2018-09-12T15:14:40.928Z,13.30
2018-09-12T15:17:08.451Z,13.00
2018-09-12T15:19:36.065Z,13.70
2018-09-12T15:22:03.659Z,13.80
2018-09-12T15:24:31.298Z,13.40
2018-09-12T15:26:59.468Z,13.60
2018-09-12T15:29:27.052Z,13.90
2018-09-12T15:31:54.661Z,13.60
2018-09-12T15:34:22.287Z,13.90
2018-09-12T15:36:49.893Z,14.70
2018-09-12T15:39:17.420Z,14.40
2018-09-12T15:41:44.965Z,15.20
2018-09-12T15:44:12.508Z,15.50
2018-09-12T15:46:40.078Z,16.00
2018-09-12T15:49:07.613Z,16.70
2018-09-12T15:51:35.176Z,17.30
2018-09-12T15:54:02.727Z,17.80
2018-09-12T15:56:30.277Z,18.20
2018-09-12T15:58:57.892Z,18.70
2018-09-12T16:01:25.431Z,19.30
2018-09-12T16:03:53.172Z,19.50
2018-09-12T16:06:20.682Z,19.90
2018-09-12T16:08:48.311Z,20.40
2018-09-12T16:11:15.846Z,20.30
2018-09-12T16:13:43.540Z,20.10
2018-09-12T16:16:11.091Z,20.70
2018-09-12T16:18:38.869Z,21.10
2018-09-12T16:21:06.444Z,21.40
2018-09-12T16:23:34.023Z,21.60
2018-09-12T16:26:01.588Z,21.70
2018-09-12T16:28:29.161Z,21.90
2018-09-12T16:30:58.167Z,22.20
2018-09-12T16:33:25.717Z,22.50
2018-09-12T16:35:53.312Z,22.70
2018-09-12T16:38:20.885Z,23.00
2018-09-12T16:40:48.456Z,23.70
2018-09-12T16:43:16.043Z,24.00
2018-09-12T16:45:43.605Z,24.50
2018-09-12T16:48:11.181Z,24.50
2018-09-12T16:50:38.782Z,24.90
2018-09-12T16:53:06.393Z,25.20
2018-09-12T16:55:33.980Z,25.60
2018-09-12T16:58:01.883Z,25.70
2018-09-12T17:00:29.705Z,25.90
2018-09-12T17:02:57.370Z,26.30
2018-09-12T17:05:24.919Z,26.60
2018-09-12T17:07:52.531Z,26.60
2018-09-12T17:10:20.105Z,26.90
2018-09-12T17:12:47.729Z,27.80
2018-09-12T17:15:15.319Z,28.10
2018-09-12T17:17:42.920Z,27.90
2018-09-12T17:20:10.501Z,28.10
2018-09-12T17:22:38.100Z,28.40
2018-09-12T17:25:05.836Z,29.10
2018-09-12T17:27:33.389Z,29.60
2018-09-12T17:30:01.026Z,29.50
2018-09-12T17:32:28.822Z,31.00
2018-09-12T17:34:56.570Z,30.70
2018-09-12T17:37:24.177Z,32.10
2018-09-12T17:39:51.792Z,30.60
2018-09-12T17:42:19.368Z,33.40
2018-09-12T17:44:47.119Z,32.40
2018-09-12T17:47:14.747Z,34.50
2018-09-12T17:49:42.413Z,32.70
2018-09-12T17:52:10.002Z,32.50
2018-09-12T17:54:37.567Z,34.80
2018-09-12T17:57:05.204Z,36.50
2018-09-12T17:59:32.805Z,38.00
2018-09-12T18:02:00.592Z,38.60
2018-09-12T18:04:28.215Z,39.80
2018-09-12T18:06:55.869Z,40.60
2018-09-12T18:09:23.423Z,41.10
2018-09-12T18:11:51.013Z,41.80
2018-09-12T18:14:18.537Z,42.70
2018-09-12T18:16:46.360Z,43.30
2018-09-12T18:19:13.970Z,43.30
2018-09-12T18:21:41.536Z,44.00
2018-09-12T18:24:09.135Z,43.20
2018-09-12T18:26:36.738Z,43.30
2018-09-12T18:29:05.290Z,43.80
2018-09-12T18:31:33.096Z,43.50
2018-09-12T18:34:00.750Z,44.60
2018-09-12T18:36:28.300Z,45.80
2018-09-12T18:38:55.883Z,46.20
2018-09-12T18:41:23.542Z,46.50
2018-09-12T18:43:51.215Z,46.70
2018-09-12T18:46:19.553Z,47.20
2018-09-12T18:48:47.148Z,47.80
2018-09-12T18:51:14.805Z,48.20
2018-09-12T18:53:42.372Z,48.70
2018-09-12T18:56:09.945Z,49.10
2018-09-12T18:58:37.536Z,49.70
2018-09-12T19:01:05.158Z,49.60
2018-09-12T19:03:32.785Z,49.70
2018-09-12T19:06:00.399Z,50.20
2018-09-12T19:08:27.984Z,50.80
2018-09-12T19:10:55.568Z,51.30
2018-09-12T19:13:23.165Z,51.70
2018-09-12T19:15:51.016Z,51.60
2018-09-12T19:18:18.677Z,51.90
2018-09-12T19:20:47.056Z,52.20
2018-09-12T19:23:14.623Z,52.00
2018-09-12T19:25:42.258Z,52.20
2018-09-12T19:28:09.873Z,52.50
2018-09-12T19:30:38.212Z,52.80
2018-09-12T19:33:05.834Z,53.10
2018-09-12T19:35:33.400Z,53.90
2018-09-12T19:38:01.032Z,54.20
2018-09-12T19:40:28.696Z,54.30
2018-09-12T19:42:56.324Z,54.80
2018-09-12T19:45:23.866Z,55.40
2018-09-12T19:47:51.480Z,55.40
2018-09-12T19:50:19.178Z,55.50
2018-09-12T19:52:46.750Z,56.00
2018-09-12T19:55:14.277Z,56.70
2018-09-12T19:57:41.859Z,56.10
2018-09-12T20:00:15.052Z,55.40
2018-09-12T20:02:42.663Z,56.10
2018-09-12T20:05:10.347Z,56.70
2018-09-12T20:07:37.856Z,57.00
2018-09-12T20:10:05.592Z,57.50
2018-09-12T20:12:33.211Z,58.00
2018-09-12T20:15:00.773Z,58.10
2018-09-12T20:17:28.430Z,58.40
2018-09-12T20:19:56.063Z,58.70
2018-09-12T20:22:23.691Z,59.00
2018-09-12T20:24:51.246Z,58.90
2018-09-12T20:27:18.791Z,59.20
2018-09-12T20:29:46.733Z,59.50
2018-09-12T20:32:14.578Z,59.80
2018-09-12T20:34:42.148Z,59.60
2018-09-12T20:37:09.755Z,58.70
2018-09-12T20:39:37.288Z,58.40
2018-09-12T20:42:04.851Z,58.70
2018-09-12T20:44:32.415Z,59.20
2018-09-12T20:47:00.255Z,59.30
2018-09-12T20:49:27.861Z,59.60
2018-09-12T20:51:55.421Z,59.90
2018-09-12T20:54:24.839Z,60.30
2018-09-12T20:56:52.458Z,62.20
2018-09-12T20:59:20.117Z,63.70
2018-09-12T21:01:47.605Z,63.10
2018-09-12T21:04:15.211Z,61.80
2018-09-12T21:06:42.785Z,62.30
2018-09-12T21:09:11.862Z,62.70
2018-09-12T21:11:39.861Z,63.30
2018-09-12T21:14:07.800Z,64.00
2018-09-12T21:16:35.440Z,64.60
2018-09-12T21:19:03.076Z,66.10
2018-09-12T21:21:30.618Z,68.50
2018-09-12T21:23:58.292Z,70.70
2018-09-12T21:26:26.114Z,72.60
2018-09-12T21:28:53.653Z,72.40
2018-09-12T21:31:21.226Z,73.70
2018-09-12T21:33:48.772Z,72.60
2018-09-12T21:36:16.405Z,74.10
2018-09-12T21:38:43.946Z,73.90
2018-09-12T21:41:11.579Z,77.40
2018-09-12T21:43:39.137Z,79.30
2018-09-12T21:46:06.736Z,80.60
2018-09-12T21:48:34.299Z,81.40
2018-09-12T21:51:01.921Z,82.50
2018-09-12T21:53:29.549Z,81.70
2018-09-12T21:55:57.124Z,82.70
2018-09-12T21:58:24.849Z,79.30
2018-09-12T22:00:52.469Z,78.90
2018-09-12T22:03:20.021Z,78.70
2018-09-12T22:05:47.629Z,78.70
2018-09-12T22:08:15.144Z,80.80
2018-09-12T22:10:43.052Z,81.70
2018-09-12T22:13:10.606Z,82.50
2018-09-12T22:15:38.183Z,81.70
2018-09-12T22:18:05.741Z,80.20
2018-09-12T22:20:33.302Z,79.90
2018-09-12T22:23:00.851Z,80.20
2018-09-12T22:25:28.696Z,81.70
2018-09-12T22:27:56.275Z,82.50
2018-09-12T22:30:23.921Z,82.70
2018-09-12T22:32:51.530Z,83.40
2018-09-12T22:35:19.083Z,84.70
2018-09-12T22:37:46.640Z,85.30
2018-09-12T22:40:14.192Z,85.60
2018-09-12T22:42:41.774Z,86.00
2018-09-12T22:45:09.329Z,86.80
2018-09-12T22:47:36.913Z,87.50
2018-09-12T22:50:04.684Z,88.40
2018-09-12T22:52:32.229Z,88.40
2018-09-12T22:54:59.808Z,88.60
2018-09-12T22:57:27.393Z,88.80
2018-09-12T22:59:55.036Z,89.00
2018-09-12T23:02:22.651Z,89.60
2018-09-12T23:04:50.231Z,89.90
2018-09-12T23:07:17.961Z,90.60
2018-09-12T23:09:45.547Z,90.90
2018-09-12T23:12:13.115Z,91.10
2018-09-12T23:14:40.713Z,91.10
2018-09-12T23:17:08.256Z,91.20
2018-09-12T23:19:35.856Z,91.10
2018-09-12T23:22:03.474Z,91.00
2018-09-12T23:24:31.040Z,91.20
2018-09-12T23:26:58.617Z,91.30
2018-09-12T23:29:26.335Z,91.30
2018-09-12T23:31:53.940Z,91.60
2018-09-12T23:34:21.541Z,92.00
2018-09-12T23:36:49.156Z,92.10
2018-09-12T23:39:16.761Z,92.30
2018-09-12T23:41:44.323Z,92.50
2018-09-12T23:44:11.880Z,93.00
2018-09-12T23:46:39.708Z,93.10
2018-09-12T23:49:08.180Z,93.10
2018-09-12T23:51:35.795Z,93.20
2018-09-12T23:54:03.391Z,93.10
2018-09-12T23:56:30.981Z,92.90
2018-09-12T23:58:58.588Z,92.40
